createdAt,value
2022-11-10T00:00:09.238Z,40.27
2022-11-10T00:02:38.386Z,40.63
2022-11-10T00:05:07.789Z,48.27
2022-11-10T00:07:38.280Z,43.30
2022-11-10T00:10:08.934Z,41.90
2022-11-10T00:12:38.406Z,41.60
2022-11-10T00:15:25.638Z,37.67
2022-11-10T00:17:54.510Z,42.07
2022-11-10T00:20:23.947Z,46.00
2022-11-10T00:22:56.046Z,38.77
2022-11-10T00:25:25.609Z,38.47
2022-11-10T00:27:54.340Z,41.50
2022-11-10T00:30:23.238Z,41.97
2022-11-10T00:32:52.003Z,39.77
2022-11-10T00:35:20.896Z,35.50
2022-11-10T00:37:52.127Z,37.27
2022-11-10T00:40:23.279Z,41.40
2022-11-10T00:42:52.818Z,39.83
2022-11-10T00:45:21.735Z,38.83
2022-11-10T00:47:50.526Z,41.47
2022-11-10T00:50:19.684Z,43.00
2022-11-10T00:52:48.606Z,42.73
2022-11-10T00:55:17.867Z,42.90
2022-11-10T00:57:48.267Z,39.80
2022-11-10T01:00:17.817Z,42.20
2022-11-10T01:02:46.739Z,40.03
2022-11-10T01:05:15.838Z,37.67
2022-11-10T01:07:44.836Z,42.93
2022-11-10T01:10:13.703Z,38.30
2022-11-10T01:12:42.659Z,40.13
2022-11-10T01:15:13.267Z,42.27
2022-11-10T01:17:42.320Z,40.23
2022-11-10T01:20:12.500Z,41.77
2022-11-10T01:22:41.864Z,48.17
2022-11-10T01:25:11.260Z,39.40
2022-11-10T01:27:40.399Z,43.07
2022-11-10T01:30:10.283Z,44.20
2022-11-10T01:32:40.677Z,44.27
2022-11-10T01:35:10.608Z,43.37
2022-11-10T01:37:42.807Z,47.07
2022-11-10T01:40:12.935Z,45.67
2022-11-10T01:42:47.479Z,47.13
2022-11-10T01:46:00.794Z,38.37
2022-11-10T01:48:36.446Z,42.40
2022-11-10T01:51:08.418Z,48.70
2022-11-10T01:53:40.766Z,46.30
2022-11-10T01:56:11.394Z,46.57
2022-11-10T01:58:44.801Z,49.50
2022-11-10T02:01:14.057Z,45.47
2022-11-10T02:03:49.699Z,48.83
2022-11-10T02:06:21.022Z,48.27
2022-11-10T02:08:50.545Z,44.07
2022-11-10T02:11:28.623Z,44.00
2022-11-10T02:13:58.262Z,45.57
2022-11-10T02:16:27.169Z,48.23
2022-11-10T02:18:58.978Z,43.80
2022-11-10T02:21:29.188Z,43.10
2022-11-10T02:23:58.031Z,46.67
2022-11-10T02:26:29.407Z,46.30
2022-11-10T02:28:58.248Z,46.13
2022-11-10T02:31:26.992Z,47.77
2022-11-10T02:33:56.111Z,43.67
2022-11-10T02:36:25.626Z,51.67
2022-11-10T02:38:55.911Z,51.43
2022-11-10T02:41:24.799Z,50.73
2022-11-10T02:43:54.867Z,55.30
2022-11-10T02:46:23.748Z,44.50
2022-11-10T02:48:52.689Z,52.13
2022-11-10T02:51:21.793Z,51.10
2022-11-10T02:53:51.480Z,55.60
2022-11-10T02:56:21.741Z,55.00
2022-11-10T02:58:50.600Z,47.33
2022-11-10T03:01:19.530Z,52.97
2022-11-10T03:03:48.318Z,52.63
2022-11-10T03:06:17.296Z,51.93
2022-11-10T03:08:46.128Z,58.47
2022-11-10T03:11:15.040Z,53.20
2022-11-10T03:14:01.072Z,46.63
2022-11-10T03:16:31.129Z,65.27
2022-11-10T03:19:00.012Z,53.57
2022-11-10T03:21:29.426Z,64.83
2022-11-10T03:23:58.252Z,52.87
2022-11-10T03:26:27.230Z,58.27
2022-11-10T03:28:57.464Z,60.93
2022-11-10T03:31:26.292Z,53.53
2022-11-10T03:33:55.196Z,61.60
2022-11-10T03:36:23.989Z,55.37
2022-11-10T03:38:52.774Z,48.33
2022-11-10T03:41:21.766Z,58.50
2022-11-10T03:43:51.146Z,72.07
2022-11-10T03:46:21.627Z,47.47
2022-11-10T03:48:53.635Z,56.77
2022-11-10T03:51:23.074Z,59.13
2022-11-10T03:53:52.440Z,51.50
2022-11-10T03:56:21.445Z,55.43
2022-11-10T03:58:50.397Z,60.40
2022-11-10T04:01:20.855Z,59.43
2022-11-10T04:03:51.650Z,53.13
2022-11-10T04:06:38.726Z,104.57
2022-11-10T04:09:08.144Z,59.20
2022-11-10T04:11:54.437Z,98.87
2022-11-10T04:14:40.567Z,95.23
2022-11-10T04:17:11.312Z,60.50
2022-11-10T04:19:40.238Z,64.33
2022-11-10T04:22:29.022Z,86.87
2022-11-10T04:24:58.239Z,81.73
2022-11-10T04:27:26.130Z,69.67
2022-11-10T04:29:54.976Z,65.20
2022-11-10T04:32:25.521Z,70.20
2022-11-10T04:34:54.271Z,103.63
2022-11-10T04:37:23.099Z,53.73
2022-11-10T04:39:52.019Z,59.00
2022-11-10T04:42:20.808Z,79.73
2022-11-10T04:44:49.652Z,64.43
2022-11-10T04:47:18.488Z,81.77
2022-11-10T04:49:48.903Z,91.27
2022-11-10T04:52:17.777Z,95.57
2022-11-10T04:54:46.542Z,62.63
2022-11-10T04:57:15.537Z,80.60
2022-11-10T04:59:44.389Z,67.87
2022-11-10T05:02:13.176Z,61.33
2022-11-10T05:04:42.109Z,58.63
2022-11-10T05:07:12.345Z,75.83
2022-11-10T05:09:41.254Z,82.87
2022-11-10T05:12:10.861Z,85.50
2022-11-10T05:14:40.033Z,96.23
2022-11-10T05:17:08.820Z,96.03
2022-11-10T05:19:37.762Z,74.87
2022-11-10T05:22:07.976Z,127.30
2022-11-10T05:24:38.995Z,89.73
2022-11-10T05:27:08.695Z,123.00
2022-11-10T05:29:37.445Z,247.13
2022-11-10T05:32:06.882Z,80.30
2022-11-10T05:34:35.644Z,99.67
2022-11-10T05:37:04.593Z,79.77
2022-11-10T05:39:33.376Z,78.70
2022-11-10T05:42:03.752Z,81.07
2022-11-10T05:44:32.547Z,194.03
2022-11-10T05:47:01.566Z,93.10
2022-11-10T05:49:30.419Z,66.33
2022-11-10T05:51:59.202Z,97.90
2022-11-10T05:54:27.989Z,69.50
2022-11-10T05:56:56.871Z,186.90
2022-11-10T05:59:27.104Z,176.20
2022-11-10T06:01:55.960Z,125.67
2022-11-10T06:04:24.990Z,109.00
2022-11-10T06:06:54.104Z,77.30
2022-11-10T06:09:22.886Z,76.53
2022-11-10T06:11:51.737Z,118.50
2022-11-10T06:14:20.590Z,79.17
2022-11-10T06:16:50.905Z,96.73
2022-11-10T06:19:19.839Z,83.00
2022-11-10T06:21:48.863Z,71.90
2022-11-10T06:24:17.639Z,153.83
2022-11-10T06:26:46.507Z,98.60
2022-11-10T06:29:15.431Z,90.97
2022-11-10T06:31:44.567Z,93.23
2022-11-10T06:34:14.800Z,91.70
2022-11-10T06:36:43.607Z,137.07
2022-11-10T06:39:12.869Z,92.50
2022-11-10T06:41:41.716Z,109.53
2022-11-10T06:44:12.249Z,98.43
2022-11-10T06:46:42.447Z,191.60
2022-11-10T06:49:11.655Z,62.20
2022-11-10T06:51:42.144Z,150.20
2022-11-10T06:54:11.192Z,89.13
2022-11-10T06:56:40.465Z,126.10
2022-11-10T06:59:09.464Z,92.57
2022-11-10T07:01:38.540Z,133.23
2022-11-10T07:04:19.263Z,132.57
2022-11-10T07:06:50.597Z,85.33
2022-11-10T07:09:19.489Z,139.37
2022-11-10T07:11:48.406Z,67.27
2022-11-10T07:14:17.737Z,100.23
2022-11-10T07:16:46.610Z,106.00
2022-11-10T07:19:15.431Z,130.67
2022-11-10T07:21:45.113Z,99.30
2022-11-10T07:24:15.712Z,111.20
2022-11-10T07:26:44.550Z,101.87
2022-11-10T07:29:13.722Z,70.33
2022-11-10T07:31:42.480Z,89.17
2022-11-10T07:34:12.024Z,69.73
2022-11-10T07:36:41.067Z,87.43
2022-11-10T07:39:09.997Z,104.23
2022-11-10T07:41:40.341Z,78.27
2022-11-10T07:44:09.173Z,69.77
2022-11-10T07:46:38.242Z,102.70
2022-11-10T07:49:07.228Z,74.00
2022-11-10T07:51:36.057Z,72.37
2022-11-10T07:54:05.101Z,70.97
2022-11-10T07:56:34.000Z,90.70
2022-11-10T07:59:04.318Z,96.00
2022-11-10T08:01:34.489Z,57.57
2022-11-10T08:04:03.322Z,77.90
2022-11-10T08:06:36.139Z,59.90
2022-11-10T08:09:05.511Z,90.60
2022-11-10T08:11:34.548Z,76.60
2022-11-10T08:14:05.287Z,78.40
2022-11-10T08:16:34.711Z,87.57
2022-11-10T08:19:04.194Z,56.77
2022-11-10T08:21:33.387Z,49.07
2022-11-10T08:24:02.430Z,49.47
2022-11-10T08:26:31.387Z,62.50
2022-11-10T08:29:00.276Z,48.43
2022-11-10T08:31:30.675Z,50.37
2022-11-10T08:33:59.603Z,46.07
2022-11-10T08:36:28.443Z,48.67
2022-11-10T08:38:57.596Z,47.03
2022-11-10T08:41:26.367Z,49.60
2022-11-10T08:43:55.106Z,48.40
2022-11-10T08:46:23.975Z,46.13
2022-11-10T08:48:54.235Z,59.73
2022-11-10T08:51:23.072Z,57.43
2022-11-10T08:53:52.084Z,64.63
2022-11-10T08:56:20.870Z,47.67
2022-11-10T08:58:53.515Z,81.63
2022-11-10T09:01:22.464Z,51.30
2022-11-10T09:03:51.257Z,49.03
2022-11-10T09:06:21.693Z,62.40
2022-11-10T09:08:50.566Z,60.80
2022-11-10T09:11:19.377Z,82.00
2022-11-10T09:13:48.206Z,39.33
2022-11-10T09:16:17.500Z,44.67
2022-11-10T09:18:46.303Z,58.73
2022-11-10T09:21:15.148Z,53.30
2022-11-10T09:23:45.817Z,51.43
2022-11-10T09:26:20.670Z,43.03
2022-11-10T09:28:57.229Z,47.57
2022-11-10T09:31:34.113Z,49.17
2022-11-10T09:34:09.600Z,47.33
2022-11-10T09:36:40.623Z,44.90
2022-11-10T09:39:10.904Z,48.30
2022-11-10T09:41:44.412Z,45.60
2022-11-10T09:44:20.390Z,48.20
2022-11-10T09:46:53.844Z,46.30
2022-11-10T09:49:36.614Z,55.00
2022-11-10T09:52:06.951Z,45.87
2022-11-10T09:54:41.721Z,47.33
2022-11-10T09:57:15.687Z,49.47
2022-11-10T09:59:45.963Z,60.93
2022-11-10T10:02:24.164Z,64.10
2022-11-10T10:05:23.162Z,57.93
2022-11-10T10:07:59.872Z,69.83
2022-11-10T10:10:39.897Z,52.73
2022-11-10T10:13:36.740Z,55.60
2022-11-10T10:16:14.011Z,55.33
2022-11-10T10:18:49.895Z,53.10
2022-11-10T10:21:40.878Z,54.20
2022-11-10T10:24:21.163Z,52.97
2022-11-10T10:26:55.441Z,57.30
2022-11-10T10:29:25.670Z,66.17
2022-11-10T10:31:55.982Z,54.40
2022-11-10T10:34:28.684Z,52.30
2022-11-10T10:36:58.430Z,54.67
2022-11-10T10:39:31.766Z,53.47
2022-11-10T10:42:02.272Z,49.53
2022-11-10T10:44:31.095Z,54.63
2022-11-10T10:47:01.853Z,56.57
2022-11-10T10:49:31.940Z,61.87
2022-11-10T10:52:06.159Z,55.67
2022-11-10T10:54:36.810Z,50.27
2022-11-10T10:57:21.456Z,48.23
2022-11-10T10:59:50.393Z,49.30
2022-11-10T11:02:27.367Z,53.60
2022-11-10T11:05:13.460Z,46.27
2022-11-10T11:07:43.311Z,48.97
2022-11-10T11:10:23.550Z,48.50
2022-11-10T11:12:53.962Z,74.93
2022-11-10T11:15:27.381Z,42.43
2022-11-10T11:17:57.867Z,45.37
2022-11-10T11:20:40.886Z,44.40
2022-11-10T11:23:22.141Z,46.00
2022-11-10T11:25:53.720Z,47.57
2022-11-10T11:28:32.049Z,43.17
2022-11-10T11:31:10.923Z,47.07
2022-11-10T11:33:47.204Z,50.53
2022-11-10T11:36:29.173Z,41.63
2022-11-10T11:39:06.888Z,41.77
2022-11-10T11:41:41.107Z,44.20
2022-11-10T11:44:26.202Z,47.83
2022-11-10T11:47:15.377Z,44.70
2022-11-10T11:49:56.681Z,45.13
2022-11-10T11:52:36.500Z,45.80
2022-11-10T11:55:19.872Z,40.73
2022-11-10T11:58:03.341Z,46.07
2022-11-10T12:00:43.661Z,45.90
2022-11-10T12:03:43.746Z,42.57
2022-11-10T12:06:29.310Z,44.10
2022-11-10T12:09:03.841Z,45.83
2022-11-10T12:11:48.840Z,43.10
2022-11-10T12:14:28.862Z,42.43
2022-11-10T12:17:09.143Z,41.57
2022-11-10T12:19:44.970Z,46.90
2022-11-10T12:22:25.131Z,41.30
2022-11-10T12:25:09.282Z,45.27
2022-11-10T12:27:42.358Z,39.93
2022-11-10T12:30:13.980Z,45.83
2022-11-10T12:32:50.550Z,38.70
2022-11-10T12:35:24.029Z,40.67
2022-11-10T12:37:56.897Z,46.50
2022-11-10T12:40:29.959Z,49.53
2022-11-10T12:43:02.692Z,44.40
2022-11-10T12:45:37.842Z,43.83
2022-11-10T12:48:11.115Z,43.83
2022-11-10T12:50:50.445Z,49.70
2022-11-10T12:53:24.824Z,42.47
2022-11-10T12:55:59.974Z,43.17
2022-11-10T12:58:29.113Z,38.67
2022-11-10T13:01:01.286Z,45.77
2022-11-10T13:03:34.976Z,40.53
2022-11-10T13:06:05.703Z,40.13
2022-11-10T13:08:37.367Z,37.17
2022-11-10T13:11:09.450Z,41.30
2022-11-10T13:13:48.005Z,39.03
2022-11-10T13:16:52.302Z,38.10
2022-11-10T13:19:51.035Z,39.40
2022-11-10T13:22:37.730Z,36.23
2022-11-10T13:25:39.882Z,38.57
2022-11-10T13:28:11.674Z,45.33
2022-11-10T13:30:45.146Z,44.27
2022-11-10T13:33:35.309Z,41.77
2022-11-10T13:36:06.454Z,37.90
2022-11-10T13:38:38.412Z,38.43
2022-11-10T13:41:23.569Z,38.37
2022-11-10T13:43:54.063Z,38.93
2022-11-10T13:46:34.447Z,41.47
2022-11-10T13:49:23.918Z,41.23
2022-11-10T13:52:06.990Z,38.00
2022-11-10T13:55:04.355Z,40.43
2022-11-10T13:57:38.536Z,37.57
2022-11-10T14:00:28.821Z,35.20
2022-11-10T14:02:59.194Z,38.40
2022-11-10T14:06:04.322Z,36.17
2022-11-10T14:08:45.850Z,33.27
2022-11-10T14:11:22.704Z,36.77
2022-11-10T14:13:58.275Z,40.40
2022-11-10T14:16:30.216Z,39.83
2022-11-10T14:19:03.964Z,35.80
2022-11-10T14:21:41.295Z,37.33
2022-11-10T14:24:19.570Z,39.10
2022-11-10T14:26:53.343Z,38.77
2022-11-10T14:29:31.733Z,44.00
2022-11-10T14:32:03.652Z,46.57
2022-11-10T14:34:37.365Z,42.33
2022-11-10T14:37:06.646Z,43.87
2022-11-10T14:39:37.396Z,41.73
2022-11-10T14:42:08.026Z,45.90
2022-11-10T14:44:36.876Z,40.37
2022-11-10T14:47:17.020Z,43.97
2022-11-10T14:49:45.857Z,37.60
2022-11-10T14:52:15.850Z,44.13
2022-11-10T14:54:48.488Z,41.57
2022-11-10T14:57:20.200Z,42.50
2022-11-10T14:59:49.438Z,41.60
2022-11-10T15:02:20.541Z,41.43
2022-11-10T15:04:53.928Z,38.87
2022-11-10T15:07:24.149Z,47.33
2022-11-10T15:10:17.151Z,38.03
2022-11-10T15:12:46.361Z,42.27
2022-11-10T15:15:23.254Z,41.80
2022-11-10T15:17:53.602Z,42.23
2022-11-10T15:20:34.419Z,41.30
2022-11-10T15:23:06.399Z,41.90
2022-11-10T15:25:39.134Z,42.80
2022-11-10T15:28:25.568Z,42.77
2022-11-10T15:30:57.466Z,35.93
2022-11-10T15:33:34.416Z,41.33
2022-11-10T15:36:17.906Z,45.33
2022-11-10T15:39:02.646Z,42.77
2022-11-10T15:41:35.857Z,41.27
2022-11-10T15:44:19.366Z,43.43
2022-11-10T15:46:52.793Z,45.23
2022-11-10T15:49:25.067Z,40.97
2022-11-10T15:51:59.850Z,43.17
2022-11-10T15:54:37.049Z,39.47
2022-11-10T15:57:13.405Z,41.00
2022-11-10T15:59:44.541Z,40.33
2022-11-10T16:02:27.015Z,36.67
2022-11-10T16:05:00.100Z,37.00
2022-11-10T16:07:29.131Z,32.90
2022-11-10T16:09:57.997Z,32.50
2022-11-10T16:12:30.464Z,34.07
2022-11-10T16:15:05.468Z,32.17
2022-11-10T16:17:38.297Z,31.90
2022-11-10T16:20:18.563Z,33.97
2022-11-10T16:22:48.265Z,28.03
2022-11-10T16:25:27.472Z,30.23
2022-11-10T16:28:04.701Z,28.87
2022-11-10T16:30:34.718Z,28.03
2022-11-10T16:33:07.693Z,27.13
2022-11-10T16:35:41.677Z,28.37
2022-11-10T16:38:19.106Z,30.37
2022-11-10T16:40:51.435Z,29.73
2022-11-10T16:43:26.043Z,29.37
2022-11-10T16:46:08.271Z,24.07
2022-11-10T16:48:42.914Z,25.23
2022-11-10T16:51:14.742Z,25.90
2022-11-10T16:53:48.227Z,21.23
2022-11-10T16:56:21.440Z,24.50
2022-11-10T16:58:56.186Z,20.77
2022-11-10T17:01:33.984Z,22.10
2022-11-10T17:04:12.206Z,21.90
2022-11-10T17:06:41.513Z,23.80
2022-11-10T17:09:18.169Z,19.37
2022-11-10T17:11:47.602Z,21.30
2022-11-10T17:14:21.935Z,19.50
2022-11-10T17:16:52.384Z,19.27
2022-11-10T17:19:26.608Z,15.50
2022-11-10T17:22:02.096Z,18.90
2022-11-10T17:24:31.698Z,15.70
2022-11-10T17:27:00.694Z,16.33
2022-11-10T17:29:31.826Z,16.47
2022-11-10T17:32:00.642Z,13.07
2022-11-10T17:34:29.874Z,13.13
2022-11-10T17:36:59.431Z,14.10
2022-11-10T17:39:28.455Z,14.53
2022-11-10T17:41:57.413Z,13.03
2022-11-10T17:44:26.260Z,12.33
2022-11-10T17:46:56.679Z,11.40
2022-11-10T17:49:26.143Z,13.20
2022-11-10T17:51:55.688Z,11.70
2022-11-10T17:54:25.929Z,14.07
2022-11-10T17:56:55.178Z,10.93
2022-11-10T17:59:24.409Z,10.50
2022-11-10T18:01:53.575Z,14.60
2022-11-10T18:04:24.411Z,12.30
2022-11-10T18:06:53.438Z,16.50
2022-11-10T18:09:25.627Z,12.27
2022-11-10T18:11:55.094Z,13.40
2022-11-10T18:14:24.753Z,13.67
2022-11-10T18:16:54.125Z,15.03
2022-11-10T18:19:24.645Z,11.33
2022-11-10T18:21:54.117Z,14.37
2022-11-10T18:24:23.460Z,11.80
2022-11-10T18:26:52.861Z,15.30
2022-11-10T18:29:22.873Z,14.10
2022-11-10T18:31:53.520Z,11.70
2022-11-10T18:34:24.302Z,11.50
2022-11-10T18:36:53.785Z,14.83
2022-11-10T18:39:23.611Z,12.93
2022-11-10T18:41:52.911Z,14.23
2022-11-10T18:44:22.240Z,15.03
2022-11-10T18:46:51.972Z,11.37
2022-11-10T18:49:21.865Z,11.40
2022-11-10T18:51:52.483Z,14.53
2022-11-10T18:54:22.322Z,13.83
2022-11-10T18:56:51.812Z,11.53
2022-11-10T18:59:20.972Z,13.83
2022-11-10T19:01:56.043Z,14.70
2022-11-10T19:04:25.022Z,13.27
2022-11-10T19:06:57.193Z,13.37
2022-11-10T19:09:27.187Z,14.70
2022-11-10T19:11:56.691Z,10.93
2022-11-10T19:14:26.069Z,10.90
2022-11-10T19:16:55.082Z,13.20
2022-11-10T19:19:25.578Z,11.87
2022-11-10T19:21:56.579Z,14.33
2022-11-10T19:24:28.309Z,14.47
2022-11-10T19:27:00.060Z,15.47
2022-11-10T19:29:29.271Z,14.57
2022-11-10T19:31:58.584Z,16.97
2022-11-10T19:34:29.153Z,21.30
2022-11-10T19:36:59.911Z,16.63
2022-11-10T19:39:29.371Z,15.53
2022-11-10T19:41:58.206Z,14.20
2022-11-10T19:44:29.866Z,13.17
2022-11-10T19:47:00.700Z,15.73
2022-11-10T19:49:29.809Z,13.50
2022-11-10T19:52:01.567Z,17.37
2022-11-10T19:54:30.480Z,16.63
2022-11-10T19:57:00.216Z,19.50
2022-11-10T19:59:29.584Z,15.33
2022-11-10T20:01:59.960Z,15.10
2022-11-10T20:04:30.067Z,17.73
2022-11-10T20:07:18.067Z,20.70
2022-11-10T20:09:47.456Z,60.57
2022-11-10T20:12:16.775Z,19.97
2022-11-10T20:14:47.841Z,17.87
2022-11-10T20:17:17.070Z,19.80
2022-11-10T20:19:49.031Z,15.70
2022-11-10T20:22:20.165Z,18.63
2022-11-10T20:24:51.659Z,17.43
2022-11-10T20:27:21.719Z,14.43
2022-11-10T20:29:51.025Z,13.50
2022-11-10T20:32:20.242Z,22.70
2022-11-10T20:34:50.144Z,15.30
2022-11-10T20:37:21.619Z,15.53
2022-11-10T20:39:51.052Z,18.57
2022-11-10T20:42:19.933Z,20.07
2022-11-10T20:44:54.926Z,14.20
2022-11-10T20:47:30.666Z,17.67
2022-11-10T20:50:13.078Z,16.60
2022-11-10T20:52:51.537Z,22.47
2022-11-10T20:55:43.674Z,15.03
2022-11-10T20:58:09.830Z,17.40
2022-11-10T21:00:48.096Z,19.17
2022-11-10T21:03:17.827Z,15.47
2022-11-10T21:05:47.509Z,17.13
2022-11-10T21:08:17.916Z,18.20
2022-11-10T21:10:53.490Z,17.27
2022-11-10T21:13:21.818Z,18.37
2022-11-10T21:15:53.205Z,21.23
2022-11-10T21:18:23.024Z,17.40
2022-11-10T21:20:52.711Z,15.77
2022-11-10T21:23:23.405Z,17.13
2022-11-10T21:25:55.868Z,18.97
2022-11-10T21:28:25.530Z,17.13
2022-11-10T21:30:54.501Z,21.60
2022-11-10T21:33:23.679Z,19.50
2022-11-10T21:35:52.807Z,22.03
2022-11-10T21:38:23.169Z,19.13
2022-11-10T21:40:52.203Z,19.17
2022-11-10T21:43:21.432Z,20.83
2022-11-10T21:45:50.463Z,22.27
2022-11-10T21:48:19.353Z,23.37
2022-11-10T21:50:48.184Z,24.77
2022-11-10T21:53:17.240Z,20.60
2022-11-10T21:55:47.997Z,19.77
2022-11-10T21:58:17.215Z,18.63
2022-11-10T22:00:46.460Z,24.87
2022-11-10T22:03:15.751Z,21.13
2022-11-10T22:05:45.009Z,21.00
2022-11-10T22:08:18.343Z,21.60
2022-11-10T22:11:08.717Z,20.07
2022-11-10T22:13:54.943Z,20.20
2022-11-10T22:16:44.991Z,17.73
2022-11-10T22:19:13.781Z,20.13
2022-11-10T22:21:42.592Z,22.30
2022-11-10T22:24:27.226Z,26.90
2022-11-10T22:26:59.425Z,26.43
2022-11-10T22:29:31.624Z,27.63
2022-11-10T22:32:01.572Z,20.57
2022-11-10T22:34:30.712Z,31.37
2022-11-10T22:36:59.880Z,21.77
2022-11-10T22:39:48.855Z,27.13
2022-11-10T22:42:36.693Z,22.13
2022-11-10T22:45:06.181Z,22.70
2022-11-10T22:47:48.713Z,24.73
2022-11-10T22:50:17.947Z,21.80
2022-11-10T22:52:46.780Z,24.80
2022-11-10T22:55:16.789Z,27.20
2022-11-10T22:57:47.286Z,21.10
2022-11-10T23:00:17.873Z,22.83
2022-11-10T23:02:46.845Z,22.83
2022-11-10T23:05:15.980Z,20.53
2022-11-10T23:07:44.828Z,23.53
2022-11-10T23:10:13.786Z,19.33
2022-11-10T23:12:42.798Z,16.97
2022-11-10T23:15:13.707Z,20.40
2022-11-10T23:17:42.582Z,23.33
2022-11-10T23:20:12.705Z,20.93
2022-11-10T23:22:41.590Z,24.47
2022-11-10T23:25:10.825Z,23.53
2022-11-10T23:27:39.931Z,18.83
2022-11-10T23:30:09.732Z,20.87
2022-11-10T23:32:41.021Z,22.20
2022-11-10T23:35:10.365Z,16.47
2022-11-10T23:37:39.288Z,19.47
2022-11-10T23:40:09.692Z,23.90
2022-11-10T23:42:38.677Z,24.33
2022-11-10T23:45:08.906Z,19.27
2022-11-10T23:47:39.261Z,19.53
2022-11-10T23:50:09.378Z,17.20
2022-11-10T23:52:38.238Z,18.67
2022-11-10T23:55:07.898Z,17.13
2022-11-10T23:57:36.924Z,19.43
